createdAt,value
2023-05-21T00:01:16.490Z,7.37
2023-05-21T00:03:46.630Z,8.73
2023-05-21T00:06:21.282Z,8.17
2023-05-21T00:08:51.295Z,7.67
2023-05-21T00:11:21.419Z,8.00
2023-05-21T00:13:51.369Z,7.30
2023-05-21T00:16:23.678Z,7.30
2023-05-21T00:18:54.692Z,7.97
2023-05-21T00:21:27.538Z,7.30
2023-05-21T00:23:57.705Z,7.10
2023-05-21T00:26:27.930Z,6.80
2023-05-21T00:28:57.975Z,6.50
2023-05-21T00:31:28.214Z,7.20
2023-05-21T00:33:58.302Z,6.77
2023-05-21T00:36:31.959Z,7.03
2023-05-21T00:39:02.634Z,6.20
2023-05-21T00:41:35.790Z,7.37
2023-05-21T00:44:06.593Z,6.20
2023-05-21T00:46:36.559Z,6.50
2023-05-21T00:49:07.102Z,6.03
2023-05-21T00:51:40.200Z,6.10
2023-05-21T00:54:10.375Z,5.60
2023-05-21T00:56:40.679Z,5.97
2023-05-21T00:59:10.817Z,5.83
2023-05-21T01:01:40.998Z,5.87
2023-05-21T01:04:11.288Z,5.73
2023-05-21T01:06:43.915Z,5.60
2023-05-21T01:09:13.873Z,5.93
2023-05-21T01:11:46.739Z,6.03
2023-05-21T01:14:18.253Z,6.07
2023-05-21T01:16:52.772Z,5.63
2023-05-21T01:19:25.209Z,5.63
2023-05-21T01:22:04.505Z,5.40
2023-05-21T01:24:37.471Z,5.73
2023-05-21T01:27:10.731Z,5.90
2023-05-21T01:29:40.651Z,5.30
2023-05-21T01:32:18.234Z,5.43
2023-05-21T01:34:54.184Z,5.53
2023-05-21T01:37:30.127Z,5.47
2023-05-21T01:40:08.789Z,6.07
2023-05-21T01:42:42.118Z,5.27
2023-05-21T01:45:13.599Z,5.90
2023-05-21T01:47:45.078Z,5.73
2023-05-21T01:50:15.443Z,5.53
2023-05-21T01:52:53.002Z,5.57
2023-05-21T01:55:28.300Z,5.83
2023-05-21T01:58:00.013Z,5.17
2023-05-21T02:00:32.864Z,5.20
2023-05-21T02:03:02.922Z,4.97
2023-05-21T02:05:32.957Z,5.47
2023-05-21T02:08:03.222Z,4.90
2023-05-21T02:10:35.742Z,5.53
2023-05-21T02:13:06.333Z,5.50
2023-05-21T02:15:37.083Z,5.80
2023-05-21T02:18:10.103Z,5.53
2023-05-21T02:20:40.041Z,5.10
2023-05-21T02:23:10.041Z,6.40
2023-05-21T02:25:42.855Z,5.33
2023-05-21T02:28:13.158Z,5.53
2023-05-21T02:30:43.211Z,5.30
2023-05-21T02:33:14.928Z,5.47
2023-05-21T02:35:45.106Z,5.90
2023-05-21T02:38:15.000Z,5.80
2023-05-21T02:40:47.657Z,5.80
2023-05-21T02:43:17.725Z,5.47
2023-05-21T02:45:47.753Z,5.73
2023-05-21T02:48:17.811Z,5.77
2023-05-21T02:50:47.734Z,5.83
2023-05-21T02:53:17.670Z,6.73
2023-05-21T02:55:50.302Z,6.13
2023-05-21T02:58:21.772Z,6.53
2023-05-21T03:00:51.749Z,5.93
2023-05-21T03:03:21.805Z,5.63
2023-05-21T03:05:52.052Z,5.63
2023-05-21T03:08:21.977Z,5.60
2023-05-21T03:10:54.539Z,6.00
2023-05-21T03:13:24.871Z,5.40
2023-05-21T03:15:56.445Z,5.77
2023-05-21T03:18:26.327Z,5.67
2023-05-21T03:20:59.070Z,5.80
2023-05-21T03:23:29.368Z,6.20
2023-05-21T03:26:02.900Z,6.83
2023-05-21T03:28:32.794Z,5.70
2023-05-21T03:31:02.963Z,6.13
2023-05-21T03:33:32.886Z,5.60
2023-05-21T03:36:02.859Z,6.60
2023-05-21T03:38:33.007Z,6.00
2023-05-21T03:41:06.435Z,5.63
2023-05-21T03:43:36.391Z,6.17
2023-05-21T03:46:06.653Z,5.97
2023-05-21T03:48:36.672Z,6.60
2023-05-21T03:51:08.053Z,6.60
2023-05-21T03:53:38.847Z,6.13
2023-05-21T03:56:11.705Z,6.07
2023-05-21T03:58:41.692Z,6.20
2023-05-21T04:01:11.775Z,6.13
2023-05-21T04:03:41.924Z,6.20
2023-05-21T04:06:12.122Z,6.40
2023-05-21T04:08:42.849Z,6.33
2023-05-21T04:11:15.509Z,6.77
2023-05-21T04:13:46.384Z,6.67
2023-05-21T04:16:19.479Z,6.80
2023-05-21T04:18:49.792Z,6.47
2023-05-21T04:21:20.144Z,6.80
2023-05-21T04:23:50.104Z,6.43
2023-05-21T04:26:23.036Z,6.67
2023-05-21T04:28:54.345Z,6.77
2023-05-21T04:31:25.133Z,5.97
2023-05-21T04:33:55.192Z,6.63
2023-05-21T04:36:25.490Z,6.60
2023-05-21T04:38:55.505Z,6.00
2023-05-21T04:41:28.980Z,6.43
2023-05-21T04:43:58.980Z,6.20
2023-05-21T04:46:28.957Z,6.63
2023-05-21T04:49:03.266Z,6.07
2023-05-21T04:51:33.576Z,6.13
2023-05-21T04:54:03.845Z,6.40
2023-05-21T04:56:36.382Z,6.67
2023-05-21T04:59:06.822Z,6.13
2023-05-21T05:01:38.711Z,6.57
2023-05-21T05:04:09.385Z,6.53
2023-05-21T05:06:39.291Z,6.40
2023-05-21T05:09:09.150Z,6.80
2023-05-21T05:11:41.793Z,7.10
2023-05-21T05:14:11.808Z,5.93
2023-05-21T05:16:43.081Z,6.67
2023-05-21T05:19:13.212Z,7.10
2023-05-21T05:21:43.150Z,6.43
2023-05-21T05:24:13.050Z,6.50
2023-05-21T05:26:45.631Z,6.50
2023-05-21T05:29:15.586Z,6.77
2023-05-21T05:31:45.526Z,6.37
2023-05-21T05:34:15.696Z,6.90
2023-05-21T05:36:45.649Z,6.33
2023-05-21T05:39:15.685Z,6.67
2023-05-21T05:41:48.204Z,6.53
2023-05-21T05:44:19.446Z,6.77
2023-05-21T05:46:49.313Z,6.53
2023-05-21T05:49:19.249Z,6.77
2023-05-21T05:51:49.269Z,6.83
2023-05-21T05:54:19.675Z,7.23
2023-05-21T05:56:52.224Z,7.00
2023-05-21T05:59:22.155Z,6.30
2023-05-21T06:01:52.088Z,6.57
2023-05-21T06:04:21.992Z,7.30
2023-05-21T06:06:52.662Z,6.73
2023-05-21T06:09:22.581Z,6.40
2023-05-21T06:11:55.581Z,6.70
2023-05-21T06:14:25.812Z,6.67
2023-05-21T06:16:55.727Z,7.10
2023-05-21T06:19:26.053Z,7.27
2023-05-21T06:21:56.103Z,6.00
2023-05-21T06:24:26.028Z,7.30
2023-05-21T06:26:58.540Z,7.57
2023-05-21T06:29:28.597Z,7.50
2023-05-21T06:31:58.507Z,7.20
2023-05-21T06:34:29.026Z,7.33
2023-05-21T06:36:58.910Z,7.70
2023-05-21T06:39:28.850Z,7.50
2023-05-21T06:42:02.025Z,7.80
2023-05-21T06:44:31.920Z,7.47
2023-05-21T06:47:01.930Z,7.57
2023-05-21T06:49:31.857Z,8.37
2023-05-21T06:52:01.862Z,7.30
2023-05-21T06:54:31.803Z,7.67
2023-05-21T06:57:04.933Z,7.63
2023-05-21T06:59:34.942Z,7.37
2023-05-21T07:02:04.967Z,7.67
2023-05-21T07:04:35.460Z,7.47
2023-05-21T07:07:05.760Z,8.10
2023-05-21T07:09:35.770Z,7.20
2023-05-21T07:12:08.956Z,7.40
2023-05-21T07:14:39.031Z,7.37
2023-05-21T07:17:09.018Z,7.90
2023-05-21T07:19:39.064Z,6.93
2023-05-21T07:22:09.078Z,7.40
2023-05-21T07:24:38.981Z,8.17
2023-05-21T07:27:24.816Z,7.40
2023-05-21T07:29:55.494Z,7.93
2023-05-21T07:32:27.070Z,8.10
2023-05-21T07:34:57.217Z,7.13
2023-05-21T07:37:28.100Z,8.07
2023-05-21T07:39:58.141Z,7.35
2023-05-21T07:42:30.698Z,7.20
2023-05-21T07:45:00.699Z,7.95
2023-05-21T07:47:32.720Z,8.20
2023-05-21T07:50:02.660Z,8.23
2023-05-21T07:52:32.684Z,8.35
2023-05-21T07:55:04.188Z,7.63
2023-05-21T07:57:36.989Z,8.73
2023-05-21T08:00:09.521Z,7.90
2023-05-21T08:02:39.966Z,8.18
2023-05-21T08:05:10.870Z,7.93
2023-05-21T08:07:41.660Z,8.38
2023-05-21T08:10:12.241Z,8.52
2023-05-21T08:12:44.834Z,8.02
2023-05-21T08:15:14.937Z,9.18
2023-05-21T08:17:44.874Z,8.88
2023-05-21T08:20:16.278Z,8.50
2023-05-21T08:22:46.352Z,9.02
2023-05-21T08:25:16.334Z,9.25
2023-05-21T08:27:51.601Z,9.93
2023-05-21T08:30:22.577Z,9.50
2023-05-21T08:32:52.561Z,9.68
2023-05-21T08:35:22.655Z,9.73
2023-05-21T08:37:52.638Z,8.73
2023-05-21T08:40:22.788Z,9.55
2023-05-21T08:42:55.445Z,9.07
2023-05-21T08:45:26.595Z,9.80
2023-05-21T08:47:59.958Z,10.43
2023-05-21T08:50:30.891Z,9.13
2023-05-21T08:53:04.033Z,8.93
2023-05-21T08:55:42.976Z,9.13
2023-05-21T08:58:16.674Z,9.50
2023-05-21T09:00:46.634Z,8.73
2023-05-21T09:03:18.094Z,8.52
2023-05-21T09:05:48.919Z,8.90
2023-05-21T09:08:22.636Z,10.00
2023-05-21T09:10:53.965Z,9.10
2023-05-21T09:13:28.418Z,10.10
2023-05-21T09:15:58.877Z,10.20
2023-05-21T09:18:29.947Z,9.70
2023-05-21T09:21:00.204Z,9.85
2023-05-21T09:23:32.147Z,9.55
2023-05-21T09:26:03.814Z,10.07
2023-05-21T09:28:39.242Z,9.38
2023-05-21T09:31:09.552Z,10.32
2023-05-21T09:33:49.452Z,10.77
2023-05-21T09:36:22.293Z,10.57
2023-05-21T09:38:53.849Z,10.55
2023-05-21T09:41:36.340Z,10.27
2023-05-21T09:44:10.812Z,10.90
2023-05-21T09:46:42.481Z,10.77
2023-05-21T09:49:26.981Z,10.25
2023-05-21T09:51:59.091Z,10.70
2023-05-21T09:54:34.113Z,11.88
2023-05-21T09:57:05.008Z,10.40
2023-05-21T09:59:43.464Z,10.77
2023-05-21T10:02:22.630Z,11.02
2023-05-21T10:04:54.846Z,12.40
2023-05-21T10:07:26.727Z,10.20
2023-05-21T10:09:58.886Z,10.88
2023-05-21T10:12:30.727Z,10.63
2023-05-21T10:15:04.444Z,11.23
2023-05-21T10:17:34.651Z,10.65
2023-05-21T10:20:06.356Z,11.32
2023-05-21T10:22:37.506Z,10.80
2023-05-21T10:25:09.947Z,9.90
2023-05-21T10:27:40.623Z,11.18
2023-05-21T10:30:15.026Z,11.68
2023-05-21T10:32:46.093Z,11.30
2023-05-21T10:35:18.817Z,11.60
2023-05-21T10:37:49.278Z,11.00
2023-05-21T10:40:19.555Z,11.05
2023-05-21T10:43:10.271Z,11.85
2023-05-21T10:46:06.710Z,11.98
2023-05-21T10:48:52.197Z,11.55
2023-05-21T10:51:26.948Z,11.10
2023-05-21T10:54:17.058Z,11.32
2023-05-21T10:56:58.035Z,9.82
2023-05-21T10:59:39.534Z,11.23
2023-05-21T11:02:15.308Z,11.00
2023-05-21T11:04:49.434Z,10.80
2023-05-21T11:07:26.425Z,10.90
2023-05-21T11:09:58.401Z,11.25
2023-05-21T11:12:30.105Z,11.60
2023-05-21T11:15:01.187Z,11.27
2023-05-21T11:17:44.816Z,11.60
2023-05-21T11:20:16.956Z,11.43
2023-05-21T11:22:49.200Z,11.05
2023-05-21T11:25:21.203Z,11.18
2023-05-21T11:27:51.205Z,12.15
2023-05-21T11:30:22.462Z,10.75
2023-05-21T11:33:25.001Z,12.02
2023-05-21T11:36:02.550Z,11.55
2023-05-21T11:38:34.246Z,10.77
2023-05-21T11:41:06.665Z,11.43
2023-05-21T11:43:36.984Z,11.45
2023-05-21T11:46:07.317Z,10.60
2023-05-21T11:48:41.027Z,11.05
2023-05-21T11:51:11.076Z,10.88
2023-05-21T11:53:42.205Z,11.73
2023-05-21T11:56:15.849Z,11.10
2023-05-21T11:58:45.920Z,12.05
2023-05-21T12:01:25.199Z,11.90
2023-05-21T12:03:57.690Z,12.32
2023-05-21T12:06:31.611Z,11.02
2023-05-21T12:09:01.585Z,12.60
2023-05-21T12:11:31.690Z,11.88
2023-05-21T12:14:02.172Z,11.85
2023-05-21T12:16:32.900Z,12.05
2023-05-21T12:19:05.663Z,12.40
2023-05-21T12:21:36.275Z,12.30
2023-05-21T12:24:06.404Z,11.52
2023-05-21T12:26:36.538Z,11.55
2023-05-21T12:29:08.721Z,12.13
2023-05-21T12:31:50.921Z,12.30
2023-05-21T12:34:40.814Z,11.40
2023-05-21T12:37:10.813Z,11.10
2023-05-21T12:39:46.151Z,24.45
2023-05-21T12:42:16.906Z,12.82
2023-05-21T12:44:48.194Z,12.93
2023-05-21T12:47:18.637Z,12.73
2023-05-21T12:49:53.502Z,23.63
2023-05-21T12:52:25.637Z,11.02
2023-05-21T12:54:57.097Z,11.85
2023-05-21T12:57:28.799Z,11.95
2023-05-21T13:00:00.339Z,11.65
2023-05-21T13:02:31.481Z,12.57
2023-05-21T13:05:06.664Z,11.13
2023-05-21T13:07:41.567Z,11.25
2023-05-21T13:10:13.255Z,11.65
2023-05-21T13:12:44.573Z,13.45
2023-05-21T13:15:15.325Z,11.40
2023-05-21T13:17:46.005Z,11.55
2023-05-21T13:20:26.633Z,11.85
2023-05-21T13:23:01.670Z,11.50
2023-05-21T13:25:33.667Z,11.23
2023-05-21T13:28:05.891Z,12.05
2023-05-21T13:30:36.483Z,11.48
2023-05-21T13:33:06.849Z,14.93
2023-05-21T13:35:39.427Z,37.80
2023-05-21T13:38:09.287Z,11.80
2023-05-21T13:40:39.394Z,12.13
2023-05-21T13:43:09.422Z,11.63
2023-05-21T13:45:39.488Z,11.32
2023-05-21T13:48:09.828Z,11.73
2023-05-21T13:50:42.360Z,11.85
2023-05-21T13:53:12.372Z,11.88
2023-05-21T13:55:42.283Z,10.30
2023-05-21T13:58:12.159Z,12.57
2023-05-21T14:00:43.404Z,10.80
2023-05-21T14:03:13.721Z,11.30
2023-05-21T14:05:46.253Z,10.57
2023-05-21T14:08:16.860Z,10.77
2023-05-21T14:10:47.560Z,11.10
2023-05-21T14:13:19.982Z,11.05
2023-05-21T14:15:50.220Z,10.75
2023-05-21T14:18:21.405Z,10.50
2023-05-21T14:20:53.918Z,10.38
2023-05-21T14:23:23.899Z,10.85
2023-05-21T14:25:53.807Z,10.60
2023-05-21T14:28:23.793Z,10.10
2023-05-21T14:30:53.688Z,10.63
2023-05-21T14:33:23.676Z,9.93
2023-05-21T14:35:56.377Z,10.45
2023-05-21T14:38:26.312Z,11.10
2023-05-21T14:40:56.444Z,10.30
2023-05-21T14:43:26.374Z,10.13
2023-05-21T14:45:56.334Z,10.80
2023-05-21T14:48:28.092Z,10.25
2023-05-21T14:51:00.606Z,9.90
2023-05-21T14:53:30.636Z,10.50
2023-05-21T14:56:00.580Z,10.80
2023-05-21T14:58:32.132Z,10.82
2023-05-21T15:01:05.286Z,10.32
2023-05-21T15:03:35.388Z,10.25
2023-05-21T15:06:08.002Z,11.85
2023-05-21T15:08:37.965Z,11.10
2023-05-21T15:11:10.364Z,11.30
2023-05-21T15:13:41.337Z,10.82
2023-05-21T15:16:11.383Z,11.05
2023-05-21T15:18:42.403Z,12.50
2023-05-21T15:21:14.907Z,13.82
2023-05-21T15:23:45.031Z,11.77
2023-05-21T15:26:15.007Z,11.25
2023-05-21T15:28:44.856Z,10.82
2023-05-21T15:31:15.183Z,10.90
2023-05-21T15:33:45.101Z,10.07
2023-05-21T15:36:17.860Z,9.70
2023-05-21T15:38:47.693Z,9.80
2023-05-21T15:41:17.635Z,9.50
2023-05-21T15:43:49.204Z,9.32
2023-05-21T15:46:19.170Z,10.10
2023-05-21T15:48:51.848Z,9.50
2023-05-21T15:51:24.672Z,9.98
2023-05-21T15:53:54.576Z,11.20
2023-05-21T15:56:24.762Z,9.95
2023-05-21T15:58:54.648Z,9.98
2023-05-21T16:01:35.919Z,10.02
2023-05-21T16:04:06.590Z,10.32
2023-05-21T16:06:39.268Z,10.13
2023-05-21T16:09:10.104Z,9.75
2023-05-21T16:11:40.590Z,9.98
2023-05-21T16:14:10.734Z,11.20
2023-05-21T16:16:41.271Z,9.98
2023-05-21T16:19:11.182Z,10.73
2023-05-21T16:21:44.344Z,10.68
2023-05-21T16:24:14.245Z,10.20
2023-05-21T16:26:44.384Z,10.43
2023-05-21T16:29:14.344Z,10.55
2023-05-21T16:31:44.289Z,9.88
2023-05-21T16:34:14.231Z,11.07
2023-05-21T16:36:46.927Z,11.35
2023-05-21T16:39:16.845Z,10.68
2023-05-21T16:41:46.860Z,10.85
2023-05-21T16:44:17.068Z,10.98
2023-05-21T16:46:47.050Z,10.98
2023-05-21T16:49:17.049Z,10.80
2023-05-21T16:51:49.589Z,10.57
2023-05-21T16:54:19.503Z,11.07
2023-05-21T16:56:49.458Z,11.10
2023-05-21T16:59:19.548Z,11.85
2023-05-21T17:01:49.699Z,11.00
2023-05-21T17:04:19.693Z,10.50
2023-05-21T17:06:52.181Z,11.38
2023-05-21T17:09:22.130Z,11.52
2023-05-21T17:11:52.053Z,10.77
2023-05-21T17:14:33.197Z,11.30
2023-05-21T17:17:04.129Z,11.35
2023-05-21T17:19:34.278Z,11.98
2023-05-21T17:22:06.967Z,11.82
2023-05-21T17:24:37.030Z,22.05
2023-05-21T17:27:07.156Z,11.73
2023-05-21T17:29:37.376Z,12.05
2023-05-21T17:32:08.165Z,12.50
2023-05-21T17:34:38.164Z,11.43
2023-05-21T17:37:11.132Z,12.10
2023-05-21T17:39:43.891Z,12.15
2023-05-21T17:42:15.152Z,13.18
2023-05-21T17:44:45.396Z,12.27
2023-05-21T17:47:15.620Z,12.18
2023-05-21T17:49:45.660Z,12.98
2023-05-21T17:52:18.241Z,12.55
2023-05-21T17:54:48.160Z,13.00
2023-05-21T17:57:19.923Z,13.25
2023-05-21T17:59:49.998Z,12.40
2023-05-21T18:02:20.063Z,12.57
2023-05-21T18:04:50.102Z,13.18
2023-05-21T18:07:22.809Z,12.85
2023-05-21T18:09:52.875Z,12.43
2023-05-21T18:12:22.800Z,13.07
2023-05-21T18:14:52.803Z,12.48
2023-05-21T18:17:22.810Z,12.48
2023-05-21T18:19:53.782Z,12.63
2023-05-21T18:22:26.734Z,12.88
2023-05-21T18:24:56.761Z,16.40
2023-05-21T18:27:26.632Z,12.90
2023-05-21T18:29:57.149Z,13.50
2023-05-21T18:32:27.270Z,12.80
2023-05-21T18:34:58.754Z,13.57
2023-05-21T18:37:31.524Z,13.27
2023-05-21T18:40:01.535Z,12.75
2023-05-21T18:42:31.464Z,13.00
2023-05-21T18:45:10.520Z,13.25
2023-05-21T18:47:41.021Z,12.00
2023-05-21T18:50:15.539Z,12.52
2023-05-21T18:52:48.289Z,12.35
2023-05-21T18:55:18.630Z,12.18
2023-05-21T18:57:48.731Z,12.35
2023-05-21T19:00:19.366Z,13.27
2023-05-21T19:02:49.380Z,12.75
2023-05-21T19:05:19.566Z,12.93
2023-05-21T19:07:52.429Z,13.05
2023-05-21T19:10:22.526Z,14.45
2023-05-21T19:12:54.723Z,13.55
2023-05-21T19:15:24.823Z,12.70
2023-05-21T19:17:54.977Z,12.77
2023-05-21T19:20:28.702Z,13.35
2023-05-21T19:23:01.628Z,13.05
2023-05-21T19:25:32.095Z,12.50
2023-05-21T19:28:02.037Z,12.68
2023-05-21T19:30:35.162Z,13.23
2023-05-21T19:33:05.387Z,13.27
2023-05-21T19:35:35.338Z,14.23
2023-05-21T19:38:08.652Z,13.65
2023-05-21T19:40:40.664Z,14.20
2023-05-21T19:43:13.479Z,13.60
2023-05-21T19:45:43.467Z,13.52
2023-05-21T19:48:13.553Z,13.57
2023-05-21T19:50:43.664Z,13.65
2023-05-21T19:53:16.216Z,14.05
2023-05-21T19:55:46.191Z,13.20
2023-05-21T19:58:18.113Z,13.82
2023-05-21T20:00:49.526Z,13.55
2023-05-21T20:03:20.229Z,14.65
2023-05-21T20:05:50.494Z,13.80
2023-05-21T20:08:23.058Z,14.65
2023-05-21T20:10:53.172Z,15.02
2023-05-21T20:13:25.013Z,14.32
2023-05-21T20:15:55.030Z,14.20
2023-05-21T20:18:25.285Z,14.75
2023-05-21T20:20:55.818Z,14.32
2023-05-21T20:23:28.426Z,14.10
2023-05-21T20:25:58.360Z,14.65
2023-05-21T20:28:28.427Z,14.32
2023-05-21T20:31:01.019Z,14.73
2023-05-21T20:33:33.623Z,14.68
2023-05-21T20:36:05.742Z,14.70
2023-05-21T20:38:39.071Z,15.40
2023-05-21T20:41:09.144Z,13.55
2023-05-21T20:43:39.416Z,14.85
2023-05-21T20:46:09.561Z,15.38
2023-05-21T20:48:39.644Z,15.57
2023-05-21T20:51:09.682Z,14.77
2023-05-21T20:53:42.308Z,15.48
2023-05-21T20:56:15.048Z,14.95
2023-05-21T20:58:44.980Z,14.73
2023-05-21T21:01:17.694Z,15.88
2023-05-21T21:03:48.763Z,16.20
2023-05-21T21:06:19.632Z,16.65
2023-05-21T21:08:52.256Z,16.25
2023-05-21T21:11:22.357Z,17.10
2023-05-21T21:13:52.817Z,17.13
2023-05-21T21:16:22.821Z,18.10
2023-05-21T21:18:52.765Z,19.92
2023-05-21T21:21:22.788Z,21.85
2023-05-21T21:23:55.452Z,20.65
2023-05-21T21:26:25.431Z,21.50
2023-05-21T21:28:56.607Z,21.85
2023-05-21T21:31:27.072Z,22.95
2023-05-21T21:33:58.094Z,20.73
2023-05-21T21:36:29.082Z,21.42
2023-05-21T21:39:02.840Z,20.58
2023-05-21T21:41:32.861Z,19.17
2023-05-21T21:44:03.261Z,18.90
2023-05-21T21:46:33.686Z,18.38
2023-05-21T21:49:04.053Z,18.25
2023-05-21T21:51:34.214Z,18.48
2023-05-21T21:54:07.042Z,18.65
2023-05-21T21:56:37.054Z,19.90
2023-05-21T21:59:07.083Z,19.25
2023-05-21T22:01:37.357Z,17.73
2023-05-21T22:04:08.048Z,18.17
2023-05-21T22:06:39.211Z,17.67
2023-05-21T22:09:12.105Z,17.10
2023-05-21T22:11:42.328Z,16.27
2023-05-21T22:14:12.441Z,15.02
2023-05-21T22:16:43.546Z,15.02
2023-05-21T22:19:15.247Z,15.40
2023-05-21T22:21:46.674Z,13.18
2023-05-21T22:24:31.427Z,15.40
2023-05-21T22:27:03.306Z,14.25
2023-05-21T22:29:33.326Z,13.82
2023-05-21T22:32:05.568Z,14.05
2023-05-21T22:34:35.741Z,14.63
2023-05-21T22:37:05.869Z,14.80
2023-05-21T22:39:38.736Z,14.38
2023-05-21T22:42:09.578Z,13.57
2023-05-21T22:44:39.712Z,13.77
2023-05-21T22:47:10.298Z,13.90
2023-05-21T22:49:40.937Z,13.88
2023-05-21T22:52:10.949Z,14.23
2023-05-21T22:54:44.603Z,13.52
2023-05-21T22:57:14.556Z,14.00
2023-05-21T22:59:44.583Z,13.48
2023-05-21T23:02:15.171Z,13.50
2023-05-21T23:04:45.666Z,14.68
2023-05-21T23:07:15.911Z,13.88
2023-05-21T23:09:48.494Z,14.00
2023-05-21T23:12:18.633Z,15.52
2023-05-21T23:14:49.931Z,16.40
2023-05-21T23:17:20.172Z,16.50
2023-05-21T23:19:52.687Z,15.35
2023-05-21T23:22:22.806Z,15.45
2023-05-21T23:24:55.659Z,16.10
2023-05-21T23:27:25.690Z,15.38
2023-05-21T23:29:55.942Z,16.65
2023-05-21T23:32:26.332Z,15.32
2023-05-21T23:34:57.175Z,15.25
2023-05-21T23:37:27.059Z,14.82
2023-05-21T23:39:59.736Z,14.82
2023-05-21T23:42:29.773Z,15.38
2023-05-21T23:44:59.704Z,16.20
2023-05-21T23:47:29.984Z,14.48
2023-05-21T23:49:59.913Z,14.88
2023-05-21T23:52:29.991Z,15.25
2023-05-21T23:55:02.565Z,15.02
2023-05-21T23:57:32.464Z,15.40
